Etusivu
METAR-TAF:

METAR-TAF

Lentoasemat :

Meadow Lake, Saskatchewan, Kanada

Leveyspiiri: 54-08N, Pituuspiiri: 108-31W, korkeus merenpinnasta: 480 m

Tämänhetkinen sää

Tämä raportti tehtiin 1 tunti ja 17 minuuttia sitten, kello 17.00 UTC
Tuuli 5 kn idästä
Lämpötila 0°C
Kosteus 74%
Ilmanpaine 1024 hPa
Näkyvyys: 24.1 km
Pilvistä 8000 ft:n korkeudessa

METAR: CYLJ 211700Z 08005KT 15SM OVC080 M00/M04 A3024 RMK AC8 SLP271

Aika: 12:17 (18:17 UTC)


TAF: puuttuu

Säähavainnot ja -ennusteet yli 4000 lentoasemalta (METAR- ja TAF-raportit).

Käytössä olevat sääasemat on merkitty karttaan keltaisilla ja punaisilla pisteillä.

Aseta hiiri pisteen päälle nähdäksesi sääaseman nimen.

Klikkaa sitten nähdäksesi säähavainnot ja -ennusteet.

Kartan vaihtaminen: klikkaa mustalla rastilla varustettuja vihreitä pisteitä, niin voit zoomata sisään; viivalla varustettua vihreää pistettä, niin voit zoomata ulos tai vihreitä nuolia, niin pääset viereisille kartoille.


METAR-TAF: